Time;durP1;ratioP1;P1;durP2;ratioP2;P2;SDS_P1;SDS_P2;PMS_P1;PMS_P2;Temp;Humidity;BMP_temperature;BMP_pressure;BME280_temperature;BME280_humidity;BME280_pressure;Samples;Min_cycle;Max_cycle;Signal;HPM_P1;HPM_P2
2022/05/14 00:00:59;;;;;;;24.03;12.20;;;;;;;;;;5056310;28;20460;-73
2022/05/14 00:03:26;;;;;;;16.20;12.30;;;;;;;;;;5056520;28;20438;-72
2022/05/14 00:05:54;;;;;;;13.83;11.40;;;;;;;;;;5055984;28;20482;-73
2022/05/14 00:08:22;;;;;;;12.27;11.07;;;;;;;;;;5056070;28;20446;-72
2022/05/14 00:13:37;;;;;;;18.83;11.20;;;;;;;;;;5056266;28;20446;-73
2022/05/14 00:16:04;;;;;;;15.60;10.30;;;;;;;;;;5055814;28;20925;-72
2022/05/14 00:18:32;;;;;;;14.33;10.40;;;;;;;;;;5055707;28;20473;-72
2022/05/14 00:20:59;;;;;;;14.03;11.87;;;;;;;;;;5056010;28;20439;-72
2022/05/14 00:23:26;;;;;;;18.37;11.07;;;;;;;;;;5056383;28;20550;-72
2022/05/14 00:25:54;;;;;;;16.80;10.97;;;;;;;;;;5056384;28;20540;-73
2022/05/14 00:28:21;;;;;;;18.07;10.93;;;;;;;;;;5055633;28;20880;-72
2022/05/14 00:30:50;;;;;;;15.23;11.13;;;;;;;;;;5056205;28;20885;-73
2022/05/14 00:33:18;;;;;;;15.73;11.10;;;;;;;;;;5055867;28;20446;-72
2022/05/14 00:35:45;;;;;;;14.03;11.40;;;;;;;;;;5055268;28;20442;-72
2022/05/14 00:38:13;;;;;;;17.17;11.00;;;;;;;;;;5056156;28;20831;-72
2022/05/14 00:40:41;;;;;;;15.70;11.20;;;;;;;;;;5055344;28;20448;-72
2022/05/14 00:43:09;;;;;;;13.90;11.13;;;;;;;;;;5055859;28;20434;-73
2022/05/14 00:45:38;;;;;;;13.67;12.30;;;;;;;;;;5055242;28;20473;-73
2022/05/14 00:48:08;;;;;;;21.47;12.13;;;;;;;;;;5055558;28;20452;-73
2022/05/14 00:50:38;;;;;;;19.33;11.80;;;;;;;;;;5055404;28;20445;-73
2022/05/14 00:53:06;;;;;;;11.63;9.97;;;;;;;;;;5055312;28;20426;-73
2022/05/14 00:55:34;;;;;;;15.63;11.30;;;;;;;;;;5055345;28;20953;-73
2022/05/14 00:58:02;;;;;;;17.13;10.70;;;;;;;;;;5055597;28;20483;-72
2022/05/14 01:00:30;;;;;;;16.10;10.97;;;;;;;;;;5055163;28;20956;-73
2022/05/14 01:02:57;;;;;;;16.33;10.87;;;;;;;;;;5054914;28;20520;-73
2022/05/14 01:05:26;;;;;;;14.67;11.60;;;;;;;;;;5055271;28;20442;-73
2022/05/14 01:07:55;;;;;;;15.50;11.30;;;;;;;;;;5055201;28;20461;-73
2022/05/14 01:10:24;;;;;;;14.40;9.90;;;;;;;;;;5055107;28;20469;-72
2022/05/14 01:12:53;;;;;;;17.13;11.07;;;;;;;;;;5054880;28;20938;-73
2022/05/14 01:15:22;;;;;;;12.37;9.80;;;;;;;;;;5054757;28;20460;-72
2022/05/14 01:17:51;;;;;;;14.40;10.93;;;;;;;;;;5054694;28;20478;-73
2022/05/14 01:20:19;;;;;;;16.57;9.90;;;;;;;;;;5055007;28;20521;-73
2022/05/14 01:22:56;;;;;;;15.63;11.13;;;;;;;;;;5054585;28;20449;-73
2022/05/14 01:28:12;;;;;;;14.80;9.50;;;;;;;;;;5054824;28;20443;-72
2022/05/14 01:30:45;;;;;;;16.40;9.03;;;;;;;;;;5054541;28;20449;-73
2022/05/14 01:33:13;;;;;;;15.93;9.87;;;;;;;;;;5055098;28;20416;-72
2022/05/14 01:35:41;;;;;;;12.57;9.03;;;;;;;;;;5055172;28;20473;-72
2022/05/14 01:38:09;;;;;;;17.03;8.90;;;;;;;;;;5054602;28;20926;-73
2022/05/14 01:40:36;;;;;;;13.20;10.10;;;;;;;;;;5054641;28;20446;-72
2022/05/14 01:43:03;;;;;;;10.90;8.47;;;;;;;;;;5054170;28;20449;-72
2022/05/14 01:45:32;;;;;;;20.30;9.10;;;;;;;;;;5054512;28;20511;-73
2022/05/14 01:47:59;;;;;;;14.90;8.33;;;;;;;;;;5053599;28;20445;-72
2022/05/14 01:50:27;;;;;;;11.43;8.40;;;;;;;;;;5054957;28;20477;-72
2022/05/14 01:52:54;;;;;;;12.40;9.33;;;;;;;;;;5053931;28;20451;-72
2022/05/14 01:55:21;;;;;;;11.00;8.80;;;;;;;;;;5054331;28;20449;-73
2022/05/14 01:57:49;;;;;;;11.47;8.23;;;;;;;;;;5054138;28;20445;-72
2022/05/14 02:00:17;;;;;;;20.57;9.97;;;;;;;;;;5054024;28;20449;-72
2022/05/14 02:02:45;;;;;;;13.03;7.40;;;;;;;;;;5053587;28;20466;-73
2022/05/14 02:05:12;;;;;;;11.03;7.70;;;;;;;;;;5054185;28;20445;-73
2022/05/14 02:07:40;;;;;;;14.43;8.13;;;;;;;;;;5053717;28;20446;-72
2022/05/14 02:10:08;;;;;;;12.97;7.20;;;;;;;;;;5054188;28;20446;-72
2022/05/14 02:12:35;;;;;;;15.60;7.90;;;;;;;;;;5053972;28;20442;-73
2022/05/14 02:15:03;;;;;;;14.47;8.53;;;;;;;;;;5053636;28;20453;-72
2022/05/14 02:17:30;;;;;;;14.77;7.60;;;;;;;;;;5053584;28;20437;-72
2022/05/14 02:19:58;;;;;;;16.00;8.03;;;;;;;;;;5053528;28;20492;-72
2022/05/14 02:22:26;;;;;;;10.80;7.37;;;;;;;;;;5053728;28;20443;-72
2022/05/14 02:24:54;;;;;;;14.60;7.10;;;;;;;;;;5054106;28;20445;-72
2022/05/14 02:27:21;;;;;;;9.90;6.90;;;;;;;;;;5053436;28;20453;-72
2022/05/14 02:29:53;;;;;;;12.30;7.47;;;;;;;;;;5053406;28;20455;-72
2022/05/14 02:32:21;;;;;;;10.27;6.87;;;;;;;;;;5053460;28;20937;-72
2022/05/14 02:34:48;;;;;;;10.80;7.80;;;;;;;;;;5054303;28;20469;-72
2022/05/14 02:37:17;;;;;;;9.70;7.73;;;;;;;;;;5053703;28;20441;-72
2022/05/14 02:39:44;;;;;;;9.77;6.17;;;;;;;;;;5053555;28;20500;-72
2022/05/14 02:42:12;;;;;;;13.30;7.53;;;;;;;;;;5054004;28;20444;-73
2022/05/14 02:44:39;;;;;;;17.70;7.30;;;;;;;;;;5053293;28;20532;-72
2022/05/14 02:47:06;;;;;;;11.70;7.13;;;;;;;;;;5053458;28;20445;-72
2022/05/14 02:49:33;;;;;;;15.57;7.97;;;;;;;;;;5053226;28;20969;-76
2022/05/14 02:52:00;;;;;;;12.80;8.00;;;;;;;;;;5053604;28;20434;-73
2022/05/14 02:54:29;;;;;;;14.63;7.70;;;;;;;;;;5053175;28;20441;-70
2022/05/14 02:56:56;;;;;;;12.40;6.80;;;;;;;;;;5053352;28;20441;-72
2022/05/14 02:59:24;;;;;;;12.20;6.60;;;;;;;;;;5055829;28;20480;-72
2022/05/14 03:01:52;;;;;;;13.47;7.03;;;;;;;;;;5059710;28;21007;-73
2022/05/14 03:04:21;;;;;;;13.53;7.33;;;;;;;;;;5060060;28;20476;-73
2022/05/14 03:06:48;;;;;;;13.57;7.23;;;;;;;;;;5060101;28;20492;-73
2022/05/14 03:09:15;;;;;;;17.73;6.70;;;;;;;;;;5059582;28;20449;-73
2022/05/14 03:11:44;;;;;;;14.43;7.00;;;;;;;;;;5060528;28;20437;-73
2022/05/14 03:14:12;;;;;;;12.93;6.70;;;;;;;;;;5059570;28;20473;-73
2022/05/14 03:16:39;;;;;;;11.73;6.23;;;;;;;;;;5059962;28;20445;-73
2022/05/14 03:19:07;;;;;;;9.73;5.63;;;;;;;;;;5059775;28;20480;-73
2022/05/14 03:21:34;;;;;;;8.47;5.63;;;;;;;;;;5059968;28;20861;-73
2022/05/14 03:24:02;;;;;;;8.10;6.83;;;;;;;;;;5059777;28;20437;-73
2022/05/14 03:26:29;;;;;;;12.53;5.63;;;;;;;;;;5059852;28;20446;-73
2022/05/14 03:28:58;;;;;;;10.37;5.30;;;;;;;;;;5059927;28;20441;-73
2022/05/14 03:31:25;;;;;;;7.40;5.93;;;;;;;;;;5059475;28;20500;-71
2022/05/14 03:33:52;;;;;;;15.40;7.10;;;;;;;;;;5059729;28;20850;-73
2022/05/14 03:36:19;;;;;;;11.10;7.20;;;;;;;;;;5059496;28;20445;-72
2022/05/14 03:38:47;;;;;;;10.83;5.53;;;;;;;;;;5059501;28;21025;-73
2022/05/14 03:41:14;;;;;;;14.90;6.67;;;;;;;;;;5059818;28;20805;-73
2022/05/14 03:43:43;;;;;;;10.50;6.27;;;;;;;;;;5059416;28;20441;-76
2022/05/14 03:46:12;;;;;;;15.70;6.87;;;;;;;;;;5060044;28;20441;-76
2022/05/14 03:48:39;;;;;;;8.57;6.63;;;;;;;;;;5059526;28;20454;-75
2022/05/14 03:51:06;;;;;;;10.23;6.13;;;;;;;;;;5059797;28;20528;-76
2022/05/14 03:53:34;;;;;;;14.87;7.33;;;;;;;;;;5058770;28;20449;-75
2022/05/14 03:56:02;;;;;;;8.70;6.60;;;;;;;;;;5058594;28;20437;-74
2022/05/14 03:58:30;;;;;;;10.03;6.13;;;;;;;;;;5058601;28;20442;-76
2022/05/14 04:00:57;;;;;;;10.50;6.60;;;;;;;;;;5058637;28;20463;-74
2022/05/14 04:03:26;;;;;;;9.90;6.50;;;;;;;;;;5058813;28;20776;-73
2022/05/14 04:05:53;;;;;;;11.27;6.00;;;;;;;;;;5059385;28;20448;-74
2022/05/14 04:08:20;;;;;;;18.13;6.30;;;;;;;;;;5058929;28;20449;-73
2022/05/14 04:10:48;;;;;;;6.77;5.53;;;;;;;;;;5057058;28;20537;-74
2022/05/14 04:13:15;;;;;;;11.83;5.80;;;;;;;;;;5056170;28;20450;-73
2022/05/14 04:15:42;;;;;;;10.17;6.03;;;;;;;;;;5056335;28;20442;-74
2022/05/14 04:18:10;;;;;;;10.40;6.67;;;;;;;;;;5056597;28;20477;-74
2022/05/14 04:20:38;;;;;;;10.13;6.10;;;;;;;;;;5055773;28;20472;-75
2022/05/14 04:23:07;;;;;;;13.53;6.47;;;;;;;;;;5056478;28;20448;-74
2022/05/14 04:25:34;;;;;;;12.40;6.70;;;;;;;;;;5056000;28;20454;-75
2022/05/14 04:28:01;;;;;;;26.33;6.47;;;;;;;;;;5055663;28;20438;-75
2022/05/14 04:30:28;;;;;;;9.43;6.40;;;;;;;;;;5055113;28;20446;-74
2022/05/14 04:32:55;;;;;;;11.83;6.00;;;;;;;;;;5055898;28;20441;-73
2022/05/14 04:35:22;;;;;;;18.63;6.10;;;;;;;;;;5055498;28;20437;-74
2022/05/14 04:37:51;;;;;;;10.03;5.70;;;;;;;;;;5055968;28;20437;-73
2022/05/14 04:40:18;;;;;;;10.57;5.90;;;;;;;;;;5055346;28;20887;-74
2022/05/14 04:42:46;;;;;;;10.13;5.67;;;;;;;;;;5055760;28;20437;-74
2022/05/14 04:45:13;;;;;;;12.67;6.93;;;;;;;;;;5055297;28;20869;-74
2022/05/14 04:47:41;;;;;;;11.20;6.50;;;;;;;;;;5055395;28;20931;-74
2022/05/14 04:50:08;;;;;;;10.03;6.33;;;;;;;;;;5055183;28;20458;-74
2022/05/14 04:52:36;;;;;;;10.50;5.90;;;;;;;;;;5055656;28;20441;-74
2022/05/14 04:55:05;;;;;;;15.47;5.70;;;;;;;;;;5055477;28;20452;-74
2022/05/14 04:57:32;;;;;;;8.80;5.53;;;;;;;;;;5055160;28;20528;-74
2022/05/14 04:59:59;;;;;;;14.23;5.70;;;;;;;;;;5054766;28;20571;-74
2022/05/14 05:05:12;;;;;;;12.53;5.77;;;;;;;;;;5055133;28;20397;-74
2022/05/14 05:07:39;;;;;;;11.03;6.00;;;;;;;;;;5055359;28;20448;-74
2022/05/14 05:10:08;;;;;;;11.83;6.10;;;;;;;;;;5055069;28;20446;-75
2022/05/14 05:12:35;;;;;;;10.20;6.50;;;;;;;;;;5054925;28;20453;-75
2022/05/14 05:15:03;;;;;;;12.60;6.17;;;;;;;;;;5054729;28;20445;-75
2022/05/14 05:17:30;;;;;;;11.67;5.97;;;;;;;;;;5055137;28;20537;-75
2022/05/14 05:19:57;;;;;;;11.37;6.47;;;;;;;;;;5054906;28;20557;-75
2022/05/14 05:22:24;;;;;;;10.70;6.23;;;;;;;;;;5054084;28;20533;-74
2022/05/14 05:24:52;;;;;;;8.03;6.60;;;;;;;;;;5054342;28;20452;-75
2022/05/14 05:27:20;;;;;;;10.83;6.40;;;;;;;;;;5054918;28;20805;-75
2022/05/14 05:29:47;;;;;;;13.43;6.90;;;;;;;;;;5054753;28;20531;-75
2022/05/14 05:32:14;;;;;;;11.60;6.80;;;;;;;;;;5054493;28;20971;-76
2022/05/14 05:34:42;;;;;;;15.80;6.80;;;;;;;;;;5054375;28;20943;-75
2022/05/14 05:37:09;;;;;;;17.60;7.10;;;;;;;;;;5054701;28;20441;-74
2022/05/14 05:39:36;;;;;;;13.80;6.57;;;;;;;;;;5054528;28;20821;-74
2022/05/14 05:42:03;;;;;;;11.97;6.87;;;;;;;;;;5054171;28;20441;-75
2022/05/14 05:44:32;;;;;;;15.57;6.47;;;;;;;;;;5054578;28;20541;-76
2022/05/14 05:47:00;;;;;;;10.87;6.20;;;;;;;;;;5054445;28;20470;-75
2022/05/14 05:49:27;;;;;;;12.47;7.00;;;;;;;;;;5053919;28;20481;-75
2022/05/14 05:51:54;;;;;;;13.10;6.53;;;;;;;;;;5054097;28;20445;-75
2022/05/14 05:57:06;;;;;;;11.83;6.80;;;;;;;;;;5054226;28;20455;-74
2022/05/14 05:59:35;;;;;;;8.77;7.17;;;;;;;;;;5053716;28;20543;-74
2022/05/14 06:02:03;;;;;;;20.57;7.40;;;;;;;;;;5054273;28;20469;-75
2022/05/14 06:04:30;;;;;;;12.60;7.20;;;;;;;;;;5054290;28;20469;-74
2022/05/14 06:06:58;;;;;;;14.20;8.23;;;;;;;;;;5054588;28;20474;-74
2022/05/14 06:09:26;;;;;;;11.93;7.30;;;;;;;;;;5054274;28;20449;-76
2022/05/14 06:11:54;;;;;;;14.93;7.87;;;;;;;;;;5053675;28;20449;-75
2022/05/14 06:14:21;;;;;;;10.53;7.20;;;;;;;;;;5054009;28;20536;-76
2022/05/14 06:16:51;;;;;;;10.43;7.47;;;;;;;;;;5053862;28;20441;-77
2022/05/14 06:19:18;;;;;;;12.60;7.60;;;;;;;;;;5054071;28;20545;-76
2022/05/14 06:21:45;;;;;;;16.47;8.10;;;;;;;;;;5053487;28;20460;-76
2022/05/14 06:24:12;;;;;;;12.70;8.33;;;;;;;;;;5053899;28;20444;-76
2022/05/14 06:26:39;;;;;;;19.43;8.30;;;;;;;;;;5053873;28;20438;-76
2022/05/14 06:29:07;;;;;;;10.03;7.67;;;;;;;;;;5053556;28;20946;-76
2022/05/14 06:31:35;;;;;;;12.50;8.00;;;;;;;;;;5053777;28;20472;-76
2022/05/14 06:34:04;;;;;;;11.90;7.27;;;;;;;;;;5053037;28;20438;-70
2022/05/14 06:36:32;;;;;;;9.83;7.43;;;;;;;;;;5053868;28;20445;-70
2022/05/14 06:38:59;;;;;;;13.07;7.90;;;;;;;;;;5054232;28;20927;-70
2022/05/14 06:41:27;;;;;;;12.47;7.90;;;;;;;;;;5053417;28;20483;-70
2022/05/14 06:43:54;;;;;;;13.53;8.67;;;;;;;;;;5053249;28;20438;-70
2022/05/14 06:46:21;;;;;;;15.20;8.27;;;;;;;;;;5053517;28;20448;-71
2022/05/14 06:48:48;;;;;;;10.80;7.70;;;;;;;;;;5053301;28;20449;-70
2022/05/14 06:51:19;;;;;;;11.80;8.70;;;;;;;;;;5052850;28;21004;-71
2022/05/14 06:53:46;;;;;;;15.70;9.10;;;;;;;;;;5053240;28;20801;-71
2022/05/14 06:56:15;;;;;;;18.87;9.03;;;;;;;;;;5053076;28;20810;-70
2022/05/14 06:58:43;;;;;;;14.93;9.83;;;;;;;;;;5053150;28;20447;-70
2022/05/14 07:01:11;;;;;;;18.00;10.13;;;;;;;;;;5052968;28;20496;-70
2022/05/14 07:06:38;;;;;;;16.10;9.10;;;;;;;;;;5053343;28;20421;-69
2022/05/14 07:09:06;;;;;;;18.10;8.13;;;;;;;;;;5053621;28;20434;-70
2022/05/14 07:11:35;;;;;;;11.70;9.23;;;;;;;;;;5053000;28;20447;-69
2022/05/14 07:14:03;;;;;;;12.50;8.77;;;;;;;;;;5053149;28;20437;-70
2022/05/14 07:16:30;;;;;;;12.07;9.00;;;;;;;;;;5053183;28;20448;-70
2022/05/14 07:18:57;;;;;;;17.83;9.60;;;;;;;;;;5052970;28;20445;-70
2022/05/14 07:21:26;;;;;;;17.17;8.93;;;;;;;;;;5052745;28;20478;-70
2022/05/14 07:23:53;;;;;;;19.17;9.50;;;;;;;;;;5053183;28;20534;-70
2022/05/14 07:26:20;;;;;;;13.37;8.53;;;;;;;;;;5053112;28;20443;-68
2022/05/14 07:28:47;;;;;;;15.40;8.40;;;;;;;;;;5052828;28;20441;-75
2022/05/14 07:31:14;;;;;;;17.97;9.27;;;;;;;;;;5052755;28;20456;-75
2022/05/14 07:33:42;;;;;;;22.63;8.93;;;;;;;;;;5052348;28;20447;-75
2022/05/14 07:36:13;;;;;;;14.57;9.70;;;;;;;;;;5053380;28;20442;-74
2022/05/14 07:38:41;;;;;;;20.97;9.83;;;;;;;;;;5053034;28;20442;-74
2022/05/14 07:41:11;;;;;;;12.10;9.23;;;;;;;;;;5052278;28;20846;-74
2022/05/14 07:43:39;;;;;;;13.83;9.33;;;;;;;;;;5053009;28;20555;-74
2022/05/14 07:46:09;;;;;;;14.67;10.43;;;;;;;;;;5054220;28;20448;-74
2022/05/14 07:48:37;;;;;;;18.83;9.40;;;;;;;;;;5056742;28;20526;-75
2022/05/14 07:51:05;;;;;;;21.60;8.43;;;;;;;;;;5056402;28;20533;-74
2022/05/14 07:53:32;;;;;;;17.27;9.80;;;;;;;;;;5056508;28;20462;-74
2022/05/14 07:56:02;;;;;;;15.77;10.00;;;;;;;;;;5056675;28;20469;-75
2022/05/14 07:58:29;;;;;;;20.53;10.30;;;;;;;;;;5056214;28;20438;-75
2022/05/14 08:00:57;;;;;;;18.17;9.80;;;;;;;;;;5056404;28;20500;-75
2022/05/14 08:03:24;;;;;;;18.53;9.50;;;;;;;;;;5056124;28;20433;-76
2022/05/14 08:05:51;;;;;;;18.37;10.10;;;;;;;;;;5056138;28;20528;-75
2022/05/14 08:08:18;;;;;;;19.70;10.10;;;;;;;;;;5055929;28;21056;-75
2022/05/14 08:10:46;;;;;;;15.83;10.57;;;;;;;;;;5056641;28;20446;-75
2022/05/14 08:13:15;;;;;;;32.93;11.70;;;;;;;;;;5056196;28;20446;-75
2022/05/14 08:15:43;;;;;;;12.27;10.10;;;;;;;;;;5055829;28;20948;-75
2022/05/14 08:18:11;;;;;;;20.73;10.60;;;;;;;;;;5056096;28;20445;-75
2022/05/14 08:20:39;;;;;;;20.13;10.50;;;;;;;;;;5056048;28;20578;-74
2022/05/14 08:25:52;;;;;;;25.93;11.03;;;;;;;;;;5055888;28;20443;-74
2022/05/14 08:28:20;;;;;;;21.10;11.47;;;;;;;;;;5055598;28;20445;-74
2022/05/14 08:30:47;;;;;;;13.63;9.50;;;;;;;;;;5055930;28;20457;-74
2022/05/14 08:33:15;;;;;;;20.20;11.00;;;;;;;;;;5055273;28;20522;-75
2022/05/14 08:35:42;;;;;;;18.17;10.87;;;;;;;;;;5055699;28;20534;-74
2022/05/14 08:38:11;;;;;;;16.57;10.23;;;;;;;;;;5055765;28;20481;-74
2022/05/14 08:40:40;;;;;;;19.93;10.63;;;;;;;;;;5055328;28;20473;-74
2022/05/14 08:43:14;;;;;;;16.40;10.20;;;;;;;;;;5056022;28;20779;-75
2022/05/14 08:45:43;;;;;;;21.13;10.90;;;;;;;;;;5055477;28;20438;-74
2022/05/14 08:48:14;;;;;;;22.30;11.20;;;;;;;;;;5055466;28;20465;-75
2022/05/14 08:50:42;;;;;;;25.57;11.67;;;;;;;;;;5055638;28;20511;-75
2022/05/14 08:53:13;;;;;;;18.90;11.53;;;;;;;;;;5055671;28;20803;-75
2022/05/14 08:55:42;;;;;;;19.20;9.73;;;;;;;;;;5055594;28;20444;-75
2022/05/14 08:58:13;;;;;;;14.20;8.53;;;;;;;;;;5055225;28;20803;-75
2022/05/14 09:00:40;;;;;;;15.63;11.13;;;;;;;;;;5055598;28;20473;-76
2022/05/14 09:03:08;;;;;;;17.50;9.87;;;;;;;;;;5054960;28;20961;-73
2022/05/14 09:05:37;;;;;;;16.33;9.20;;;;;;;;;;5055272;28;20437;-73
2022/05/14 09:08:05;;;;;;;18.70;9.90;;;;;;;;;;5054957;28;20474;-74
2022/05/14 09:10:34;;;;;;;19.17;9.70;;;;;;;;;;5054888;28;20499;-73
2022/05/14 09:13:02;;;;;;;25.27;11.00;;;;;;;;;;5054738;28;20441;-74
2022/05/14 09:15:31;;;;;;;17.50;9.70;;;;;;;;;;5055332;28;20438;-73
2022/05/14 09:18:10;;;;;;;13.90;9.07;;;;;;;;;;5053757;28;20449;-73
2022/05/14 09:20:45;;;;;;;17.03;9.83;;;;;;;;;;5055175;28;20464;-73
2022/05/14 09:23:12;;;;;;;14.60;8.77;;;;;;;;;;5054973;28;20796;-73
2022/05/14 09:25:41;;;;;;;20.57;9.43;;;;;;;;;;5055203;28;20474;-73
2022/05/14 09:28:10;;;;;;;16.63;8.90;;;;;;;;;;5055140;28;20455;-74
2022/05/14 09:30:39;;;;;;;15.47;10.00;;;;;;;;;;5054546;28;20459;-74
2022/05/14 09:33:07;;;;;;;15.53;8.80;;;;;;;;;;5054692;28;20442;-74
2022/05/14 09:35:37;;;;;;;20.93;9.63;;;;;;;;;;5054738;28;20525;-74
2022/05/14 09:38:09;;;;;;;16.13;9.23;;;;;;;;;;5054263;28;20524;-74
2022/05/14 09:40:36;;;;;;;21.10;10.87;;;;;;;;;;5054132;28;20473;-74
2022/05/14 09:43:11;;;;;;;17.50;9.23;;;;;;;;;;5054068;28;20457;-73
2022/05/14 09:45:39;;;;;;;15.17;8.77;;;;;;;;;;5054625;28;20770;-73
2022/05/14 09:48:17;;;;;;;14.87;10.07;;;;;;;;;;5054256;28;20441;-73
2022/05/14 09:50:48;;;;;;;17.60;7.43;;;;;;;;;;5054562;28;20968;-73
2022/05/14 09:53:25;;;;;;;17.77;8.40;;;;;;;;;;5054315;28;20770;-74
2022/05/14 09:56:02;;;;;;;21.13;9.60;;;;;;;;;;5054104;28;20426;-74
2022/05/14 09:58:33;;;;;;;17.10;8.27;;;;;;;;;;5053846;28;20437;-74
2022/05/14 10:01:04;;;;;;;20.10;8.17;;;;;;;;;;5054582;28;20481;-74
2022/05/14 10:03:39;;;;;;;18.40;8.00;;;;;;;;;;5054437;28;20465;-74
2022/05/14 10:06:11;;;;;;;16.40;8.40;;;;;;;;;;5054324;28;20425;-74
2022/05/14 10:08:46;;;;;;;13.83;7.70;;;;;;;;;;5053206;28;20522;-74
2022/05/14 10:11:16;;;;;;;18.57;8.33;;;;;;;;;;5054035;28;20440;-74
2022/05/14 10:13:47;;;;;;;19.00;8.47;;;;;;;;;;5053521;28;20444;-74
2022/05/14 10:16:21;;;;;;;12.07;6.57;;;;;;;;;;5054275;28;20434;-75
2022/05/14 10:19:05;;;;;;;19.20;7.77;;;;;;;;;;5053117;28;21017;-74
2022/05/14 10:21:38;;;;;;;12.97;6.80;;;;;;;;;;5054167;28;20471;-74
2022/05/14 10:27:06;;;;;;;14.20;6.83;;;;;;;;;;5053664;28;20422;-71
2022/05/14 10:29:41;;;;;;;17.17;7.33;;;;;;;;;;5054026;28;20433;-73
2022/05/14 10:32:09;;;;;;;19.80;7.37;;;;;;;;;;5053759;28;20441;-74
2022/05/14 10:34:45;;;;;;;12.90;6.40;;;;;;;;;;5053651;28;20438;-75
2022/05/14 10:37:18;;;;;;;12.80;5.97;;;;;;;;;;5053750;28;20513;-75
2022/05/14 10:39:48;;;;;;;11.07;6.63;;;;;;;;;;5053233;28;20436;-75
2022/05/14 10:42:18;;;;;;;13.63;6.53;;;;;;;;;;5053385;28;20483;-75
2022/05/14 10:44:49;;;;;;;16.73;6.53;;;;;;;;;;5053593;28;20956;-75
2022/05/14 10:47:19;;;;;;;15.93;8.00;;;;;;;;;;5053736;28;20434;-75
2022/05/14 10:49:49;;;;;;;17.00;6.17;;;;;;;;;;5053152;28;20439;-73
2022/05/14 10:52:18;;;;;;;11.80;6.80;;;;;;;;;;5053550;28;20520;-73
2022/05/14 10:54:46;;;;;;;16.70;6.53;;;;;;;;;;5053344;28;20866;-75
2022/05/14 10:57:32;;;;;;;11.30;7.23;;;;;;;;;;5053456;28;20442;-74
2022/05/14 11:00:02;;;;;;;13.47;6.03;;;;;;;;;;5053533;28;20538;-74
2022/05/14 11:02:30;;;;;;;10.93;5.20;;;;;;;;;;5053592;28;20533;-74
2022/05/14 11:04:58;;;;;;;20.53;6.40;;;;;;;;;;5053282;28;20442;-74
2022/05/14 11:07:31;;;;;;;9.97;6.33;;;;;;;;;;5053327;28;20446;-74
2022/05/14 11:10:09;;;;;;;13.50;6.33;;;;;;;;;;5053465;28;20422;-74
2022/05/14 11:12:37;;;;;;;14.43;6.57;;;;;;;;;;5053752;28;20932;-74
2022/05/14 11:15:05;;;;;;;14.20;6.70;;;;;;;;;;5053202;28;20496;-74
2022/05/14 11:17:33;;;;;;;17.07;7.43;;;;;;;;;;5053251;28;20447;-74
2022/05/14 11:20:11;;;;;;;12.97;5.90;;;;;;;;;;5053477;28;20962;-75
2022/05/14 11:22:41;;;;;;;11.63;6.13;;;;;;;;;;5057186;28;20481;-74
2022/05/14 11:25:13;;;;;;;20.57;6.37;;;;;;;;;;5057116;28;20446;-74
2022/05/14 11:27:41;;;;;;;10.73;5.83;;;;;;;;;;5057712;28;20453;-74
2022/05/14 11:30:10;;;;;;;15.23;5.43;;;;;;;;;;5056914;28;20534;-74
2022/05/14 11:32:45;;;;;;;18.40;5.23;;;;;;;;;;5057119;28;20459;-74
2022/05/14 11:35:13;;;;;;;12.33;5.50;;;;;;;;;;5057085;28;20468;-74
2022/05/14 11:37:43;;;;;;;12.73;6.27;;;;;;;;;;5057186;28;20538;-75
2022/05/14 11:40:16;;;;;;;14.97;5.07;;;;;;;;;;5056631;28;20435;-74
2022/05/14 11:42:44;;;;;;;8.20;4.73;;;;;;;;;;5056540;28;20511;-74
2022/05/14 11:45:15;;;;;;;10.93;5.20;;;;;;;;;;5057122;28;20445;-74
2022/05/14 11:47:47;;;;;;;14.60;5.30;;;;;;;;;;5056746;28;20946;-74
2022/05/14 11:50:17;;;;;;;16.17;5.90;;;;;;;;;;5057052;28;20446;-74
2022/05/14 11:52:49;;;;;;;11.87;4.80;;;;;;;;;;5056900;28;20448;-74
2022/05/14 11:55:20;;;;;;;9.03;4.97;;;;;;;;;;5056902;28;20435;-75
2022/05/14 11:57:49;;;;;;;11.63;5.23;;;;;;;;;;5056405;28;20942;-73
2022/05/14 12:00:17;;;;;;;12.23;5.00;;;;;;;;;;5056667;28;20871;-74
2022/05/14 12:02:46;;;;;;;19.70;4.97;;;;;;;;;;5056558;28;20491;-74
2022/05/14 12:05:21;;;;;;;16.73;5.47;;;;;;;;;;5056306;28;20439;-73
2022/05/14 12:07:59;;;;;;;10.30;5.17;;;;;;;;;;5056134;28;20935;-73
2022/05/14 12:10:29;;;;;;;16.67;5.30;;;;;;;;;;5056076;28;20427;-73
2022/05/14 12:12:59;;;;;;;14.73;5.50;;;;;;;;;;5056078;28;20455;-74
2022/05/14 12:15:29;;;;;;;12.67;4.97;;;;;;;;;;5056775;28;20431;-74
2022/05/14 12:17:58;;;;;;;13.47;5.80;;;;;;;;;;5056007;28;20428;-74
2022/05/14 12:20:26;;;;;;;12.10;5.93;;;;;;;;;;5056164;28;20439;-74
2022/05/14 12:22:57;;;;;;;14.00;4.60;;;;;;;;;;5056209;28;20470;-73
2022/05/14 12:25:35;;;;;;;13.60;5.67;;;;;;;;;;5056020;28;20925;-74
2022/05/14 12:28:02;;;;;;;11.73;5.70;;;;;;;;;;5056736;28;20453;-74
2022/05/14 12:33:15;;;;;;;10.10;4.63;;;;;;;;;;5055382;28;20424;-74
2022/05/14 12:35:44;;;;;;;12.33;5.70;;;;;;;;;;5056060;28;20941;-74
2022/05/14 12:38:14;;;;;;;10.43;4.67;;;;;;;;;;5055974;28;20807;-73
2022/05/14 12:40:41;;;;;;;10.57;5.33;;;;;;;;;;5055472;28;20436;-74
2022/05/14 12:43:10;;;;;;;12.13;5.03;;;;;;;;;;5055731;28;20890;-74
2022/05/14 12:45:39;;;;;;;11.67;5.00;;;;;;;;;;5055353;28;20447;-74
2022/05/14 12:48:07;;;;;;;11.87;4.97;;;;;;;;;;5055713;28;20440;-74
2022/05/14 12:50:34;;;;;;;11.07;4.53;;;;;;;;;;5055805;28;20432;-73
2022/05/14 12:53:03;;;;;;;15.57;6.10;;;;;;;;;;5056108;28;20453;-74
2022/05/14 12:55:33;;;;;;;11.60;4.63;;;;;;;;;;5054749;28;20453;-74
2022/05/14 12:58:02;;;;;;;8.93;5.00;;;;;;;;;;5054979;28;20441;-74
2022/05/14 13:00:30;;;;;;;15.40;5.00;;;;;;;;;;5054664;28;20460;-73
2022/05/14 13:02:59;;;;;;;10.00;5.30;;;;;;;;;;5056233;28;20491;-73
2022/05/14 13:05:28;;;;;;;11.27;5.67;;;;;;;;;;5054858;28;20437;-73
2022/05/14 13:07:56;;;;;;;11.43;4.67;;;;;;;;;;5054971;28;20448;-74
2022/05/14 13:10:25;;;;;;;13.70;5.40;;;;;;;;;;5055262;28;20445;-74
2022/05/14 13:12:57;;;;;;;10.10;4.70;;;;;;;;;;5054905;28;20456;-74
2022/05/14 13:15:32;;;;;;;10.70;4.20;;;;;;;;;;5055281;28;20479;-74
2022/05/14 13:17:59;;;;;;;14.27;5.00;;;;;;;;;;5055072;28;20433;-74
2022/05/14 13:20:27;;;;;;;13.20;4.83;;;;;;;;;;5055147;28;20469;-74
2022/05/14 13:23:04;;;;;;;9.07;4.53;;;;;;;;;;5054873;28;20481;-74
2022/05/14 13:25:32;;;;;;;8.77;4.47;;;;;;;;;;5054717;28;20842;-73
2022/05/14 13:28:11;;;;;;;15.50;5.40;;;;;;;;;;5054382;28;20536;-73
2022/05/14 13:30:38;;;;;;;8.43;4.60;;;;;;;;;;5055059;28;20449;-73
2022/05/14 13:33:06;;;;;;;11.10;5.77;;;;;;;;;;5054741;28;20450;-73
2022/05/14 13:38:19;;;;;;;9.80;5.13;;;;;;;;;;5054606;28;20448;-73
2022/05/14 13:40:47;;;;;;;10.40;4.30;;;;;;;;;;5054594;28;20440;-73
2022/05/14 13:43:18;;;;;;;14.70;4.30;;;;;;;;;;5053171;28;20480;-73
2022/05/14 13:45:47;;;;;;;9.03;4.60;;;;;;;;;;5053861;28;20476;-73
2022/05/14 13:48:20;;;;;;;10.33;4.43;;;;;;;;;;5054214;28;20445;-73
2022/05/14 13:50:56;;;;;;;11.30;4.80;;;;;;;;;;5054788;28;20502;-74
2022/05/14 13:53:24;;;;;;;9.03;4.57;;;;;;;;;;5054292;28;20434;-74
2022/05/14 13:56:00;;;;;;;13.43;4.93;;;;;;;;;;5054214;28;20802;-74
2022/05/14 13:58:29;;;;;;;10.63;4.00;;;;;;;;;;5054324;28;20899;-74
2022/05/14 14:00:59;;;;;;;7.80;4.50;;;;;;;;;;5054620;28;20903;-73
2022/05/14 14:03:31;;;;;;;11.10;4.20;;;;;;;;;;5054220;28;20574;-74
2022/05/14 14:05:58;;;;;;;9.00;4.60;;;;;;;;;;5053569;28;20440;-73
2022/05/14 14:08:27;;;;;;;11.17;4.70;;;;;;;;;;5053704;28;20449;-74
2022/05/14 14:10:55;;;;;;;12.20;4.30;;;;;;;;;;5053790;28;20478;-74
2022/05/14 14:13:23;;;;;;;11.80;4.70;;;;;;;;;;5053819;28;20480;-74
2022/05/14 14:15:51;;;;;;;13.07;4.50;;;;;;;;;;5054435;28;20520;-74
2022/05/14 14:18:18;;;;;;;9.97;3.97;;;;;;;;;;5054213;28;20433;-73
2022/05/14 14:20:49;;;;;;;10.30;4.97;;;;;;;;;;5053812;28;20437;-73
2022/05/14 14:23:19;;;;;;;18.53;5.43;;;;;;;;;;5053593;28;21057;-74
2022/05/14 14:25:46;;;;;;;7.00;4.47;;;;;;;;;;5053767;28;20520;-73
2022/05/14 14:28:14;;;;;;;6.40;4.10;;;;;;;;;;5053284;28;20481;-74
2022/05/14 14:30:42;;;;;;;11.87;4.37;;;;;;;;;;5053920;28;20457;-74
2022/05/14 14:33:11;;;;;;;12.53;4.70;;;;;;;;;;5053529;28;20540;-74
2022/05/14 14:35:38;;;;;;;12.70;4.50;;;;;;;;;;5054174;28;20440;-73
2022/05/14 14:38:05;;;;;;;7.93;3.83;;;;;;;;;;5053785;28;20433;-74
2022/05/14 14:40:33;;;;;;;10.93;3.83;;;;;;;;;;5053501;28;20575;-74
2022/05/14 14:43:01;;;;;;;13.70;5.60;;;;;;;;;;5053502;28;20505;-74
2022/05/14 14:45:28;;;;;;;11.37;4.60;;;;;;;;;;5053443;28;20445;-74
2022/05/14 14:47:56;;;;;;;9.87;4.77;;;;;;;;;;5053164;28;20462;-74
2022/05/14 14:50:25;;;;;;;12.07;5.10;;;;;;;;;;5053561;28;20446;-74
2022/05/14 14:52:53;;;;;;;11.70;4.53;;;;;;;;;;5053396;28;20453;-74
2022/05/14 14:55:21;;;;;;;10.20;4.73;;;;;;;;;;5053051;28;20532;-74
2022/05/14 14:57:48;;;;;;;9.27;4.77;;;;;;;;;;5053161;28;20796;-73
2022/05/14 15:00:17;;;;;;;7.77;4.20;;;;;;;;;;5053200;28;20496;-74
2022/05/14 15:02:47;;;;;;;10.13;4.20;;;;;;;;;;5053284;28;20512;-74